createdAt,value
2022-12-22T00:02:38.798Z,100594.25
2022-12-22T00:05:41.171Z,100599.53
2022-12-22T00:08:27.287Z,100599.38
2022-12-22T00:11:13.829Z,100593.22
2022-12-22T00:14:01.359Z,100589.72
2022-12-22T00:16:51.329Z,100593.97
2022-12-22T00:19:36.889Z,100592.22
2022-12-22T00:22:32.181Z,100580.72
2022-12-22T00:25:17.577Z,100579.78
2022-12-22T00:28:03.031Z,100572.84
2022-12-22T00:30:48.247Z,100570.19
2022-12-22T00:33:37.121Z,100574.56
2022-12-22T00:36:24.567Z,100573.84
2022-12-22T00:39:09.739Z,100567.59
2022-12-22T00:41:54.935Z,100574.56
2022-12-22T00:44:39.758Z,100578.97
2022-12-22T00:47:32.165Z,100579.91
2022-12-22T00:50:17.897Z,100581.63
2022-12-22T00:53:03.114Z,100574.50
2022-12-22T00:55:49.880Z,100574.44
2022-12-22T00:58:37.429Z,100569.97
2022-12-22T01:01:23.099Z,100570.69
2022-12-22T01:04:08.166Z,100574.06
2022-12-22T01:06:54.786Z,100560.94
2022-12-22T01:09:41.971Z,100560.06
2022-12-22T01:12:36.638Z,100560.00
2022-12-22T01:15:22.034Z,100557.19
2022-12-22T01:18:06.748Z,100542.28
2022-12-22T01:20:51.998Z,100557.13
2022-12-22T01:23:37.246Z,100553.53
2022-12-22T01:26:22.744Z,100547.41
2022-12-22T01:29:07.557Z,100546.69
2022-12-22T01:31:52.666Z,100535.06
2022-12-22T01:34:37.531Z,100523.41
2022-12-22T01:37:22.571Z,100517.03
2022-12-22T01:40:07.243Z,100516.13
2022-12-22T01:42:53.717Z,100525.66
2022-12-22T01:45:47.677Z,100515.88
2022-12-22T01:48:35.300Z,100514.19
2022-12-22T01:51:34.456Z,100519.53
2022-12-22T01:54:19.960Z,100520.41
2022-12-22T01:57:06.989Z,100522.06
2022-12-22T01:59:52.593Z,100519.25
2022-12-22T02:02:39.987Z,100526.22
2022-12-22T02:05:29.303Z,100517.25
2022-12-22T02:08:37.469Z,100517.97
2022-12-22T02:11:48.234Z,100522.22
2022-12-22T02:15:02.073Z,100515.06
2022-12-22T02:17:51.682Z,100506.31
2022-12-22T02:21:05.881Z,100510.53
2022-12-22T02:24:07.046Z,100513.91
2022-12-22T02:27:10.660Z,100511.97
2022-12-22T02:30:02.042Z,100513.56
2022-12-22T02:32:53.099Z,100520.63
2022-12-22T02:35:38.652Z,100512.75
2022-12-22T02:38:37.728Z,100514.50
2022-12-22T02:41:42.038Z,100510.03
2022-12-22T02:45:06.843Z,100508.19
2022-12-22T02:48:03.785Z,100499.13
2022-12-22T02:50:53.602Z,100499.78
2022-12-22T02:53:39.406Z,100511.09
2022-12-22T02:56:27.363Z,100513.75
2022-12-22T02:59:13.099Z,100521.56
2022-12-22T03:02:00.160Z,100514.38
2022-12-22T03:04:45.072Z,100514.38
2022-12-22T03:07:30.063Z,100521.50
2022-12-22T03:10:15.544Z,100513.59
2022-12-22T03:13:00.913Z,100516.19
2022-12-22T03:15:45.853Z,100505.59
2022-12-22T03:18:31.802Z,100505.66
2022-12-22T03:21:17.738Z,100502.06
2022-12-22T03:24:03.050Z,100495.06
2022-12-22T03:26:31.173Z,100501.19
2022-12-22T03:28:57.789Z,100497.69
2022-12-22T03:31:24.454Z,100488.88
2022-12-22T03:33:51.146Z,100486.22
2022-12-22T03:36:17.671Z,100478.13
2022-12-22T03:38:44.266Z,100473.59
2022-12-22T03:41:30.764Z,100467.34
2022-12-22T03:44:15.582Z,100468.16
2022-12-22T03:46:42.162Z,100466.34
2022-12-22T03:49:11.670Z,100468.22
2022-12-22T03:51:50.944Z,100464.69
2022-12-22T03:54:19.741Z,100472.72
2022-12-22T03:56:47.156Z,100471.88
2022-12-22T03:59:13.925Z,100474.59
2022-12-22T04:01:43.988Z,100473.91
2022-12-22T04:04:12.549Z,100482.88
2022-12-22T04:06:39.575Z,100482.28
2022-12-22T04:09:08.158Z,100486.59
2022-12-22T04:11:53.995Z,100487.47
2022-12-22T04:14:21.692Z,100488.22
2022-12-22T04:16:48.968Z,100487.38
2022-12-22T04:19:16.167Z,100504.06
2022-12-22T04:21:43.907Z,100507.59
2022-12-22T04:24:14.548Z,100500.47
2022-12-22T04:26:41.134Z,100497.84
2022-12-22T04:29:07.965Z,100489.03
2022-12-22T04:31:34.577Z,100495.19
2022-12-22T04:34:01.210Z,100492.59
2022-12-22T04:36:27.782Z,100490.97
2022-12-22T04:38:54.372Z,100494.63
2022-12-22T04:41:21.015Z,100483.16
2022-12-22T04:43:47.633Z,100484.94
2022-12-22T04:46:14.339Z,100481.38
2022-12-22T04:48:41.937Z,100484.94
2022-12-22T04:51:08.519Z,100476.22
2022-12-22T04:53:35.461Z,100464.81
2022-12-22T04:56:05.047Z,100472.63
2022-12-22T04:58:32.200Z,100477.16
2022-12-22T05:01:09.142Z,100469.25
2022-12-22T05:03:35.893Z,100475.50
2022-12-22T05:06:02.504Z,100470.19
2022-12-22T05:08:29.047Z,100465.78
2022-12-22T05:10:55.600Z,100476.44
2022-12-22T05:13:22.193Z,100476.44
2022-12-22T05:15:48.741Z,100471.84
2022-12-22T05:18:15.436Z,100471.78
2022-12-22T05:20:42.085Z,100472.63
2022-12-22T05:23:08.660Z,100469.31
2022-12-22T05:25:35.765Z,100478.09
2022-12-22T05:28:02.921Z,100467.31
2022-12-22T05:30:29.529Z,100469.91
2022-12-22T05:32:56.136Z,100472.56
2022-12-22T05:35:22.808Z,100470.78
2022-12-22T05:37:49.389Z,100466.25
2022-12-22T05:40:16.188Z,100473.25
2022-12-22T05:42:42.771Z,100473.25
2022-12-22T05:45:18.337Z,100471.38
2022-12-22T05:47:47.461Z,100467.81
2022-12-22T05:50:17.488Z,100468.66
2022-12-22T05:52:44.427Z,100466.94
2022-12-22T05:55:11.863Z,100468.66
2022-12-22T05:57:38.550Z,100463.34
2022-12-22T06:00:10.744Z,100467.81
2022-12-22T06:02:37.393Z,100469.75
2022-12-22T06:05:04.451Z,100463.59
2022-12-22T06:07:31.094Z,100465.59
2022-12-22T06:09:57.674Z,100477.09
2022-12-22T06:12:24.277Z,100481.44
2022-12-22T06:14:50.944Z,100472.78
2022-12-22T06:17:17.581Z,100478.09
2022-12-22T06:19:45.399Z,100483.44
2022-12-22T06:22:11.976Z,100477.28
2022-12-22T06:24:38.524Z,100483.53
2022-12-22T06:27:05.623Z,100471.97
2022-12-22T06:29:32.271Z,100479.16
2022-12-22T06:31:58.883Z,100480.09
2022-12-22T06:34:25.438Z,100487.09
2022-12-22T06:36:54.315Z,100487.97
2022-12-22T06:39:21.723Z,100484.59
2022-12-22T06:42:07.971Z,100485.41
2022-12-22T06:44:34.423Z,100491.47
2022-12-22T06:47:01.026Z,100493.13
2022-12-22T06:49:27.703Z,100493.13
2022-12-22T06:51:54.568Z,100493.13
2022-12-22T06:54:26.090Z,100489.41
2022-12-22T06:56:53.221Z,100499.00
2022-12-22T06:59:19.842Z,100492.75
2022-12-22T07:01:46.586Z,100491.69
2022-12-22T07:04:19.687Z,100493.41
2022-12-22T07:06:47.861Z,100488.94
2022-12-22T07:09:14.563Z,100493.16
2022-12-22T07:11:41.670Z,100490.53
2022-12-22T07:14:08.309Z,100492.16
2022-12-22T07:16:35.049Z,100486.84
2022-12-22T07:19:01.676Z,100487.63
2022-12-22T07:21:28.274Z,100492.03
2022-12-22T07:23:54.861Z,100488.44
2022-12-22T07:26:21.513Z,100489.22
2022-12-22T07:28:48.135Z,100490.72
2022-12-22T07:31:17.349Z,100492.38
2022-12-22T07:33:44.099Z,100493.97
2022-12-22T07:36:14.221Z,100490.31
2022-12-22T07:38:43.138Z,100488.47
2022-12-22T07:41:30.197Z,100501.66
2022-12-22T07:43:58.822Z,100499.91
2022-12-22T07:46:29.705Z,100507.81
2022-12-22T07:49:15.150Z,100509.53
2022-12-22T07:51:42.647Z,100512.97
2022-12-22T07:54:11.425Z,100505.09
2022-12-22T07:56:38.718Z,100511.97
2022-12-22T07:59:06.019Z,100512.69
2022-12-22T08:01:32.846Z,100513.75
2022-12-22T08:03:59.532Z,100511.88
2022-12-22T08:06:26.796Z,100507.19
2022-12-22T08:08:54.420Z,100511.38
2022-12-22T08:11:20.949Z,100508.53
2022-12-22T08:13:47.723Z,100505.75
2022-12-22T08:16:14.650Z,100511.81
2022-12-22T08:18:41.984Z,100510.81
2022-12-22T08:21:08.815Z,100520.25
2022-12-22T08:23:36.567Z,100508.63
2022-12-22T08:26:27.094Z,100509.19
2022-12-22T08:28:59.411Z,100509.81
2022-12-22T08:31:29.280Z,100504.25
2022-12-22T08:33:58.989Z,100504.94
2022-12-22T08:36:26.544Z,100495.97
2022-12-22T08:38:53.334Z,100500.25
2022-12-22T08:41:39.916Z,100500.19
2022-12-22T08:44:06.524Z,100509.16
2022-12-22T08:46:33.179Z,100504.56
2022-12-22T08:48:59.812Z,100508.84
2022-12-22T08:51:26.356Z,100510.81
2022-12-22T08:54:08.137Z,100510.94
2022-12-22T08:56:35.824Z,100514.66
2022-12-22T08:59:07.782Z,100513.59
2022-12-22T09:01:37.076Z,100505.34
2022-12-22T09:04:04.986Z,100505.19
2022-12-22T09:06:40.135Z,100500.72
2022-12-22T09:09:10.385Z,100499.63
2022-12-22T09:11:37.776Z,100491.56
2022-12-22T09:14:05.320Z,100492.44
2022-12-22T09:16:33.807Z,100475.81
2022-12-22T09:19:01.593Z,100471.88
2022-12-22T09:21:28.989Z,100468.28
2022-12-22T09:23:56.454Z,100474.28
2022-12-22T09:26:25.228Z,100469.84
2022-12-22T09:28:52.601Z,100465.63
2022-12-22T09:31:21.111Z,100461.25
2022-12-22T09:33:48.377Z,100466.66
2022-12-22T09:36:17.893Z,100465.69
2022-12-22T09:38:46.028Z,100454.94
2022-12-22T09:41:19.408Z,100461.69
2022-12-22T09:43:46.455Z,100463.31
2022-12-22T09:46:22.830Z,100459.03
2022-12-22T09:48:50.087Z,100459.91
2022-12-22T09:51:22.730Z,100460.06
2022-12-22T09:53:57.360Z,100455.88
2022-12-22T09:56:26.561Z,100439.81
2022-12-22T09:58:53.149Z,100436.06
2022-12-22T10:01:25.886Z,100439.34
2022-12-22T10:04:01.336Z,100438.06
2022-12-22T10:06:55.091Z,100428.22
2022-12-22T10:09:48.785Z,100432.41
2022-12-22T10:12:16.643Z,100437.03
2022-12-22T10:14:46.542Z,100430.00
2022-12-22T10:17:24.149Z,100422.72
2022-12-22T10:19:54.276Z,100422.00
2022-12-22T10:22:24.503Z,100413.72
2022-12-22T10:24:51.168Z,100416.06
2022-12-22T10:27:23.060Z,100400.56
2022-12-22T10:29:52.454Z,100403.13
2022-12-22T10:32:21.341Z,100407.50
2022-12-22T10:35:06.194Z,100409.81
2022-12-22T10:37:37.483Z,100399.03
2022-12-22T10:40:21.239Z,100392.38
2022-12-22T10:42:55.237Z,100386.47
2022-12-22T10:45:25.924Z,100397.78
2022-12-22T10:47:55.359Z,100378.47
2022-12-22T10:50:22.673Z,100384.38
2022-12-22T10:52:52.287Z,100377.53
2022-12-22T10:55:26.200Z,100364.78
2022-12-22T10:58:14.478Z,100364.78
2022-12-22T11:00:41.728Z,100364.97
2022-12-22T11:03:20.609Z,100379.31
2022-12-22T11:05:49.055Z,100387.25
2022-12-22T11:08:22.889Z,100373.16
2022-12-22T11:10:55.617Z,100375.91
2022-12-22T11:13:37.277Z,100376.38
2022-12-22T11:16:14.533Z,100356.88
2022-12-22T11:18:53.208Z,100355.53
2022-12-22T11:21:43.216Z,100359.19
2022-12-22T11:24:18.685Z,100364.41
2022-12-22T11:27:01.640Z,100371.47
2022-12-22T11:29:47.018Z,100355.75
2022-12-22T11:32:49.801Z,100361.19
2022-12-22T11:35:43.524Z,100357.22
2022-12-22T11:38:12.995Z,100346.47
2022-12-22T11:40:46.790Z,100351.59
2022-12-22T11:43:24.237Z,100356.63
2022-12-22T11:46:16.289Z,100372.44
2022-12-22T11:49:01.198Z,100375.19
2022-12-22T11:51:36.797Z,100373.28
2022-12-22T11:54:32.723Z,100363.47
2022-12-22T11:57:20.158Z,100363.78
2022-12-22T12:00:05.403Z,100348.91
2022-12-22T12:03:04.599Z,100350.94
2022-12-22T12:05:31.191Z,100357.91
2022-12-22T12:08:35.804Z,100364.69
2022-12-22T12:11:18.490Z,100364.13
2022-12-22T12:13:50.916Z,100363.06
2022-12-22T12:16:55.935Z,100354.25
2022-12-22T12:19:26.850Z,100352.41
2022-12-22T12:21:59.982Z,100349.44
2022-12-22T12:24:33.947Z,100349.19
2022-12-22T12:27:22.247Z,100341.09
2022-12-22T12:33:47.706Z,100346.53
2022-12-22T12:36:43.198Z,100359.84
2022-12-22T12:39:09.898Z,100366.41
2022-12-22T12:42:01.476Z,100374.50
2022-12-22T12:44:33.526Z,100366.59
2022-12-22T12:47:25.155Z,100382.31
2022-12-22T12:49:57.146Z,100379.25
2022-12-22T12:52:38.642Z,100375.91
2022-12-22T12:55:32.341Z,100375.34
2022-12-22T12:58:02.157Z,100371.50
2022-12-22T13:00:34.705Z,100366.00
2022-12-22T13:03:19.998Z,100369.31
2022-12-22T13:05:59.775Z,100365.44
2022-12-22T13:09:22.319Z,100355.47
2022-12-22T13:12:14.540Z,100363.63
2022-12-22T13:14:55.429Z,100351.38
2022-12-22T13:17:50.297Z,100355.56
2022-12-22T13:20:25.483Z,100347.25
2022-12-22T13:22:57.045Z,100343.47
2022-12-22T13:25:26.899Z,100343.25
2022-12-22T13:27:56.668Z,100336.22
2022-12-22T13:30:23.950Z,100342.81
2022-12-22T13:32:50.889Z,100338.53
2022-12-22T13:35:42.954Z,100348.41
2022-12-22T13:38:45.900Z,100339.31
2022-12-22T13:41:27.489Z,100325.69
2022-12-22T13:44:04.077Z,100316.38
2022-12-22T13:46:34.696Z,100308.09
2022-12-22T13:49:04.890Z,100307.59
2022-12-22T13:51:35.881Z,100306.50
2022-12-22T13:54:33.543Z,100306.09
2022-12-22T13:57:03.223Z,100306.28
2022-12-22T13:59:34.687Z,100309.22
2022-12-22T14:02:15.510Z,100303.34
2022-12-22T14:05:03.798Z,100280.03
2022-12-22T14:07:30.987Z,100272.63
2022-12-22T14:09:59.474Z,100287.91
2022-12-22T14:12:32.385Z,100297.75
2022-12-22T14:15:03.028Z,100297.69
2022-12-22T14:17:37.922Z,100286.09
2022-12-22T14:20:26.901Z,100282.84
2022-12-22T14:23:02.733Z,100291.78
2022-12-22T14:25:33.655Z,100287.56
2022-12-22T14:28:01.332Z,100292.31
2022-12-22T14:30:40.901Z,100293.25
2022-12-22T14:33:16.492Z,100302.09
2022-12-22T14:35:43.360Z,100294.13
2022-12-22T14:38:26.756Z,100315.41
2022-12-22T14:40:57.599Z,100322.63
2022-12-22T14:43:26.887Z,100347.41
2022-12-22T14:46:06.301Z,100351.09
2022-12-22T14:48:39.875Z,100354.63
2022-12-22T14:51:07.215Z,100344.06
2022-12-22T14:53:39.965Z,100339.03
2022-12-22T14:56:12.417Z,100340.88
2022-12-22T14:58:42.044Z,100352.66
2022-12-22T15:01:28.703Z,100349.56
2022-12-22T15:04:02.263Z,100355.31
2022-12-22T15:06:28.816Z,100340.53
2022-12-22T15:09:13.410Z,100323.91
2022-12-22T15:11:46.354Z,100336.59
2022-12-22T15:14:23.410Z,100335.03
2022-12-22T15:16:50.941Z,100330.06
2022-12-22T15:19:20.887Z,100332.13
2022-12-22T15:21:47.435Z,100327.00
2022-12-22T15:24:16.893Z,100314.75
2022-12-22T15:26:44.939Z,100313.00
2022-12-22T15:29:11.847Z,100308.75
2022-12-22T15:31:39.858Z,100317.63
2022-12-22T15:34:15.138Z,100322.19
2022-12-22T15:36:41.732Z,100312.50
2022-12-22T15:39:16.928Z,100315.25
2022-12-22T15:41:44.698Z,100302.97
2022-12-22T15:44:11.791Z,100303.25
2022-12-22T15:46:40.316Z,100300.59
2022-12-22T15:49:13.895Z,100282.84
2022-12-22T15:51:40.636Z,100281.06
2022-12-22T15:54:13.038Z,100275.75
2022-12-22T15:56:39.861Z,100284.38
2022-12-22T15:59:06.616Z,100281.31
2022-12-22T16:01:33.276Z,100282.06
2022-12-22T16:03:59.942Z,100267.00
2022-12-22T16:06:26.591Z,100281.03
2022-12-22T16:08:54.266Z,100273.34
2022-12-22T16:11:21.038Z,100268.78
2022-12-22T16:13:49.973Z,100270.41
2022-12-22T16:16:17.053Z,100273.94
2022-12-22T16:18:43.697Z,100272.91
2022-12-22T16:21:19.916Z,100269.97
2022-12-22T16:23:49.088Z,100273.50
2022-12-22T16:26:19.363Z,100280.59
2022-12-22T16:28:46.790Z,100291.06
2022-12-22T16:31:22.218Z,100298.19
2022-12-22T16:33:49.988Z,100312.06
2022-12-22T16:36:17.451Z,100313.69
2022-12-22T16:38:45.918Z,100323.53
2022-12-22T16:41:22.490Z,100311.78
2022-12-22T16:46:36.242Z,100309.31
2022-12-22T16:49:03.047Z,100308.66
2022-12-22T16:51:34.060Z,100302.63
2022-12-22T16:54:01.667Z,100304.16
2022-12-22T16:56:31.058Z,100299.88
2022-12-22T16:58:57.995Z,100301.00
2022-12-22T17:01:27.534Z,100306.16
2022-12-22T17:03:55.084Z,100311.47
2022-12-22T17:06:21.963Z,100307.84
2022-12-22T17:08:49.079Z,100300.41
2022-12-22T17:11:22.964Z,100290.53
2022-12-22T17:13:53.388Z,100288.81
2022-12-22T17:16:22.242Z,100277.16
2022-12-22T17:18:49.191Z,100286.00
2022-12-22T17:21:18.943Z,100286.69
2022-12-22T17:23:51.875Z,100274.44
2022-12-22T17:26:22.909Z,100280.56
2022-12-22T17:28:50.264Z,100269.34
2022-12-22T17:31:19.238Z,100270.50
2022-12-22T17:33:46.216Z,100278.28
2022-12-22T17:36:30.876Z,100281.97
2022-12-22T17:38:58.194Z,100274.09
2022-12-22T17:41:24.923Z,100273.03
2022-12-22T17:43:51.668Z,100260.28
2022-12-22T17:46:20.542Z,100269.13
2022-12-22T17:48:48.456Z,100275.53
2022-12-22T17:51:24.372Z,100279.22
2022-12-22T17:53:52.721Z,100284.47
2022-12-22T17:56:22.013Z,100283.50
2022-12-22T17:58:48.814Z,100282.91
2022-12-22T18:01:30.950Z,100270.97
2022-12-22T18:03:58.554Z,100286.75
2022-12-22T18:06:33.878Z,100285.13
2022-12-22T18:09:01.305Z,100275.38
2022-12-22T18:11:28.233Z,100275.63
2022-12-22T18:13:57.330Z,100288.06
2022-12-22T18:16:24.259Z,100298.03
2022-12-22T18:18:51.492Z,100295.38
2022-12-22T18:21:21.201Z,100290.22
2022-12-22T18:23:50.706Z,100289.09
2022-12-22T18:26:29.700Z,100293.97
2022-12-22T18:28:57.273Z,100282.47
2022-12-22T18:31:24.638Z,100286.69
2022-12-22T18:33:51.807Z,100278.34
2022-12-22T18:36:37.259Z,100275.50
2022-12-22T18:39:04.625Z,100270.97
2022-12-22T18:41:35.340Z,100269.16
2022-12-22T18:44:01.968Z,100266.91
2022-12-22T18:46:28.581Z,100262.34
2022-12-22T18:48:57.751Z,100248.78
2022-12-22T18:51:27.527Z,100244.50
2022-12-22T18:53:54.735Z,100232.25
2022-12-22T18:56:21.493Z,100230.63
2022-12-22T18:58:48.261Z,100226.47
2022-12-22T19:01:24.582Z,100230.03
2022-12-22T19:03:53.729Z,100235.47
2022-12-22T19:06:22.193Z,100227.50
2022-12-22T19:08:50.087Z,100236.81
2022-12-22T19:11:21.504Z,100228.53
2022-12-22T19:13:51.239Z,100221.53
2022-12-22T19:16:22.958Z,100225.22
2022-12-22T19:18:49.657Z,100221.13
2022-12-22T19:21:18.137Z,100223.13
2022-12-22T19:23:45.114Z,100218.84
2022-12-22T19:26:26.901Z,100208.28
2022-12-22T19:29:01.232Z,100203.94
2022-12-22T19:31:32.290Z,100210.00
2022-12-22T19:34:02.849Z,100208.09
2022-12-22T19:36:31.192Z,100207.25
2022-12-22T19:39:03.867Z,100197.66
2022-12-22T19:41:41.752Z,100199.56
2022-12-22T19:44:30.404Z,100199.72
2022-12-22T19:46:59.332Z,100212.94
2022-12-22T19:49:27.448Z,100207.53
2022-12-22T19:51:55.704Z,100197.75
2022-12-22T19:54:22.519Z,100190.53
2022-12-22T19:56:53.300Z,100195.84
2022-12-22T19:59:38.626Z,100214.38
2022-12-22T20:02:21.195Z,100206.31
2022-12-22T20:04:48.827Z,100218.88
2022-12-22T20:07:16.943Z,100206.31
2022-12-22T20:09:43.505Z,100208.72
2022-12-22T20:12:22.171Z,100219.66
2022-12-22T20:14:48.872Z,100222.81
2022-12-22T20:17:15.443Z,100223.19
2022-12-22T20:19:42.174Z,100211.59
2022-12-22T20:22:14.156Z,100207.16
2022-12-22T20:24:40.770Z,100212.19
2022-12-22T20:27:18.385Z,100220.66
2022-12-22T20:29:44.934Z,100214.16
2022-12-22T20:32:15.668Z,100210.47
2022-12-22T20:34:42.442Z,100192.69
2022-12-22T20:37:14.553Z,100180.22
2022-12-22T20:39:41.394Z,100183.75
2022-12-22T20:42:20.796Z,100181.97
2022-12-22T20:45:03.045Z,100165.06
2022-12-22T20:47:32.461Z,100160.75
2022-12-22T20:49:59.543Z,100158.00
2022-12-22T20:52:26.187Z,100160.75
2022-12-22T20:54:52.772Z,100147.72
2022-12-22T20:57:20.313Z,100141.66
2022-12-22T20:59:53.865Z,100162.31
2022-12-22T21:02:25.342Z,100163.34
2022-12-22T21:04:52.068Z,100152.78
2022-12-22T21:07:18.782Z,100155.38
2022-12-22T21:09:45.367Z,100156.09
2022-12-22T21:12:11.948Z,100161.69
2022-12-22T21:14:38.559Z,100151.91
2022-12-22T21:17:05.190Z,100153.22
2022-12-22T21:19:31.934Z,100145.03
2022-12-22T21:21:58.540Z,100146.78
2022-12-22T21:24:25.097Z,100154.75
2022-12-22T21:26:55.220Z,100152.94
2022-12-22T21:29:25.285Z,100145.50
2022-12-22T21:31:52.026Z,100145.72
2022-12-22T21:34:20.834Z,100142.28
2022-12-22T21:36:52.204Z,100131.19
2022-12-22T21:39:31.415Z,100134.03
2022-12-22T21:42:00.781Z,100129.66
2022-12-22T21:44:30.832Z,100124.44
2022-12-22T21:46:57.826Z,100128.72
2022-12-22T21:49:27.277Z,100125.00
2022-12-22T21:51:54.885Z,100120.00
2022-12-22T21:54:23.812Z,100121.88
2022-12-22T21:56:51.752Z,100134.25
2022-12-22T21:59:18.631Z,100132.44
2022-12-22T22:01:45.575Z,100126.16
2022-12-22T22:04:12.965Z,100125.22
2022-12-22T22:06:39.551Z,100115.00
2022-12-22T22:09:07.236Z,100112.59
2022-12-22T22:11:54.052Z,100107.84
2022-12-22T22:14:21.087Z,100119.50
2022-12-22T22:16:47.888Z,100127.94
2022-12-22T22:19:14.493Z,100120.16
2022-12-22T22:21:41.031Z,100122.03
2022-12-22T22:24:07.723Z,100129.75
2022-12-22T22:26:34.288Z,100131.25
2022-12-22T22:29:00.838Z,100136.72
2022-12-22T22:31:27.419Z,100124.34
2022-12-22T22:33:54.133Z,100121.69
2022-12-22T22:36:20.678Z,100118.63
2022-12-22T22:38:50.712Z,100121.09
2022-12-22T22:41:17.255Z,100110.34
2022-12-22T22:43:43.846Z,100115.25
2022-12-22T22:46:10.411Z,100116.88
2022-12-22T22:48:37.285Z,100103.78
2022-12-22T22:51:03.934Z,100102.25
2022-12-22T22:53:30.842Z,100095.22
2022-12-22T22:56:02.409Z,100094.38
2022-12-22T22:58:29.722Z,100092.47
2022-12-22T23:00:56.483Z,100089.47
2022-12-22T23:03:23.337Z,100090.22
2022-12-22T23:05:50.032Z,100090.22
2022-12-22T23:08:16.601Z,100090.84
2022-12-22T23:10:49.396Z,100093.97
2022-12-22T23:13:15.971Z,100097.38
2022-12-22T23:15:42.696Z,100099.84
2022-12-22T23:18:09.322Z,100093.44
2022-12-22T23:20:35.936Z,100087.16
2022-12-22T23:23:02.549Z,100084.69
2022-12-22T23:25:29.104Z,100078.84
2022-12-22T23:27:55.687Z,100076.28
2022-12-22T23:30:22.264Z,100088.00
2022-12-22T23:32:48.813Z,100078.31
2022-12-22T23:35:15.413Z,100083.81
2022-12-22T23:37:41.955Z,100090.22
2022-12-22T23:40:41.833Z,100100.34
2022-12-22T23:42:57.234Z,100090.66
2022-12-22T23:45:24.016Z,100097.69
2022-12-22T23:47:50.556Z,100093.66
2022-12-22T23:50:17.220Z,100094.41
2022-12-22T23:52:48.929Z,100090.00
2022-12-22T23:55:16.173Z,100098.88
2022-12-22T23:57:43.284Z,100093.22
